Time;durP1;ratioP1;P1;durP2;ratioP2;P2;SDS_P1;SDS_P2;PMS_P1;PMS_P2;Temp;Humidity;BMP_temperature;BMP_pressure;BME280_temperature;BME280_humidity;BME280_pressure;Samples;Min_cycle;Max_cycle;Signal;HPM_P1;HPM_P2
2023/11/16 00:01:49;;;;;;;7.05;2.15;;;10.20;90.20;;;;;;4995415;28;20027;-35
2023/11/16 00:04:15;;;;;;;4.75;1.52;;;10.10;90.20;;;;;;4995269;28;20470;-34
2023/11/16 00:06:42;;;;;;;9.07;1.95;;;10.20;90.20;;;;;;4995432;28;20492;-34
2023/11/16 00:09:08;;;;;;;8.48;1.77;;;10.10;90.10;;;;;;4995294;28;20076;-34
2023/11/16 00:11:33;;;;;;;8.65;1.90;;;10.10;90.10;;;;;;4995731;28;20113;-34
2023/11/16 00:13:59;;;;;;;5.88;1.65;;;10.10;90.10;;;;;;4994989;28;20022;-34
2023/11/16 00:16:25;;;;;;;6.70;1.80;;;10.10;90.10;;;;;;4995170;28;20034;-35
2023/11/16 00:18:53;;;;;;;8.63;2.10;;;10.10;90.20;;;;;;4993813;28;20491;-35
2023/11/16 00:21:19;;;;;;;8.27;1.77;;;10.10;90.10;;;;;;4995202;28;20037;-35
2023/11/16 00:23:44;;;;;;;9.60;2.00;;;10.10;90.10;;;;;;4993594;28;20117;-34
2023/11/16 00:26:11;;;;;;;8.38;1.98;;;10.10;90.10;;;;;;4995028;28;20026;-35
2023/11/16 00:28:37;;;;;;;9.60;2.17;;;10.10;90.10;;;;;;4994951;28;20482;-35
2023/11/16 00:31:03;;;;;;;8.48;1.88;;;10.10;90.00;;;;;;4995041;28;20048;-34
2023/11/16 00:33:29;;;;;;;7.43;2.25;;;10.10;90.10;;;;;;4994711;28;20446;-35
2023/11/16 00:35:58;;;;;;;7.35;1.88;;;10.10;90.10;;;;;;4994916;28;20529;-34
2023/11/16 00:38:27;;;;;;;7.15;1.80;;;10.10;90.10;;;;;;4993390;28;20046;-35
2023/11/16 00:40:55;;;;;;;8.55;1.73;;;10.10;90.00;;;;;;4994868;28;20529;-35
2023/11/16 00:43:21;;;;;;;6.80;2.20;;;10.10;90.00;;;;;;4994937;28;20026;-35
2023/11/16 00:45:46;;;;;;;7.93;1.90;;;10.10;89.90;;;;;;4994533;28;20080;-34
2023/11/16 00:48:12;;;;;;;6.13;1.88;;;10.10;89.90;;;;;;4993278;28;20026;-33
2023/11/16 00:50:37;;;;;;;10.85;2.13;;;10.10;89.80;;;;;;4993375;28;20038;-35
2023/11/16 00:53:03;;;;;;;6.45;1.98;;;10.10;89.70;;;;;;4994452;28;20089;-35
2023/11/16 00:55:31;;;;;;;10.65;2.13;;;10.10;89.70;;;;;;4994560;28;20027;-35
2023/11/16 00:57:57;;;;;;;8.25;1.98;;;10.20;89.70;;;;;;4994488;28;20402;-34
2023/11/16 01:00:26;;;;;;;7.95;1.83;;;10.20;89.60;;;;;;4993248;28;20031;-35
2023/11/16 01:02:52;;;;;;;6.85;1.88;;;10.20;89.70;;;;;;4994332;28;20105;-35
2023/11/16 01:05:18;;;;;;;6.35;1.63;;;10.20;89.70;;;;;;4994396;28;20514;-34
2023/11/16 01:07:44;;;;;;;10.75;2.00;;;10.20;89.80;;;;;;4994341;28;20022;-34
2023/11/16 01:10:15;;;;;;;8.35;1.50;;;10.20;89.90;;;;;;4994613;28;20022;-34
2023/11/16 01:12:43;;;;;;;11.80;1.90;;;10.10;90.20;;;;;;4994587;28;20033;-34
2023/11/16 01:15:10;;;;;;;8.57;1.58;;;10.10;90.00;;;;;;4994117;28;20426;-37
2023/11/16 01:17:38;;;;;;;6.53;1.92;;;10.00;90.10;;;;;;4994134;28;20026;-34
2023/11/16 01:20:06;;;;;;;5.97;1.67;;;9.90;90.20;;;;;;4994159;28;20026;-34
2023/11/16 01:22:40;;;;;;;6.53;1.95;;;9.90;90.30;;;;;;4993003;28;20049;-34
2023/11/16 01:25:14;;;;;;;6.95;2.17;;;9.80;90.50;;;;;;4993952;28;20027;-33
2023/11/16 01:27:43;;;;;;;4.53;1.50;;;9.80;90.60;;;;;;4994214;28;20045;-34
2023/11/16 01:30:10;;;;;;;8.27;1.83;;;9.70;90.70;;;;;;4994150;28;20105;-37
2023/11/16 01:32:36;;;;;;;8.88;1.83;;;9.70;90.70;;;;;;4993982;28;20018;-34
2023/11/16 01:35:03;;;;;;;7.57;1.85;;;9.60;90.80;;;;;;4993886;28;20033;-35
2023/11/16 01:37:28;;;;;;;8.02;1.90;;;9.60;90.90;;;;;;4993983;28;20034;-35
2023/11/16 01:39:54;;;;;;;6.57;1.80;;;9.60;91.00;;;;;;4993843;28;20022;-35
2023/11/16 01:42:19;;;;;;;5.90;2.13;;;9.60;91.10;;;;;;4993750;28;20029;-35
2023/11/16 01:44:45;;;;;;;9.50;2.88;;;9.60;91.20;;;;;;4993595;28;20032;-38
2023/11/16 01:47:14;;;;;;;5.63;1.65;;;9.60;91.30;;;;;;4993545;28;20026;-36
2023/11/16 01:49:40;;;;;;;6.28;1.90;;;9.60;91.30;;;;;;4993203;28;20041;-35
2023/11/16 01:52:06;;;;;;;4.63;2.03;;;9.60;91.40;;;;;;4993602;28;20022;-34
2023/11/16 01:54:35;;;;;;;5.15;1.70;;;9.60;91.40;;;;;;4993448;28;20029;-35
2023/11/16 01:57:03;;;;;;;7.88;1.90;;;9.60;91.50;;;;;;4993696;28;20440;-34
2023/11/16 01:59:29;;;;;;;5.28;1.50;;;9.60;91.60;;;;;;4993418;28;20102;-33
2023/11/16 02:01:56;;;;;;;5.40;1.67;;;9.60;91.60;;;;;;4993505;28;20560;-33
2023/11/16 02:04:22;;;;;;;6.95;1.60;;;9.70;91.60;;;;;;4993252;28;20478;-37
2023/11/16 02:06:49;;;;;;;4.28;1.60;;;9.70;91.60;;;;;;4993250;28;20030;-34
2023/11/16 02:09:15;;;;;;;6.78;1.55;;;9.70;91.70;;;;;;4993312;28;20057;-36
2023/11/16 02:11:41;;;;;;;8.02;1.70;;;9.60;91.70;;;;;;4993375;28;20018;-34
2023/11/16 02:14:06;;;;;;;8.40;1.90;;;9.70;91.70;;;;;;4992890;28;20367;-33
2023/11/16 02:16:32;;;;;;;7.65;2.10;;;9.70;91.80;;;;;;4992989;28;20387;-36
2023/11/16 02:19:30;;;;;;;4.25;1.80;;;9.70;91.80;;;;;;4991683;28;20027;-35
2023/11/16 02:22:01;;;;;;;5.45;1.80;;;9.70;91.80;;;;;;4991986;28;20085;-35
2023/11/16 02:24:27;;;;;;;6.65;1.65;;;9.70;91.80;;;;;;4992659;28;20344;-35
2023/11/16 02:26:53;;;;;;;6.47;1.63;;;9.70;91.90;;;;;;4992904;28;20080;-45
2023/11/16 02:29:19;;;;;;;5.20;1.58;;;9.60;91.90;;;;;;4992702;28;20447;-38
2023/11/16 02:31:44;;;;;;;5.90;1.45;;;9.70;91.90;;;;;;4992861;28;20102;-35
2023/11/16 02:34:10;;;;;;;7.22;2.05;;;9.60;91.90;;;;;;4992570;28;20049;-35
2023/11/16 02:36:36;;;;;;;4.75;1.80;;;9.60;91.90;;;;;;4993020;28;20101;-41
2023/11/16 02:39:03;;;;;;;6.35;2.00;;;9.60;92.00;;;;;;4992692;28;20026;-34
2023/11/16 02:41:34;;;;;;;5.68;1.88;;;9.70;92.00;;;;;;4992722;28;20041;-35
2023/11/16 02:44:00;;;;;;;6.15;2.15;;;9.60;92.00;;;;;;4992773;28;20026;-34
2023/11/16 02:46:25;;;;;;;6.57;2.22;;;9.60;92.00;;;;;;4992518;28;20438;-35
2023/11/16 02:48:51;;;;;;;5.57;2.00;;;9.60;92.00;;;;;;4992415;28;20030;-35
2023/11/16 02:51:17;;;;;;;6.53;2.22;;;9.60;92.00;;;;;;4992556;28;20026;-33
2023/11/16 02:53:43;;;;;;;4.53;2.00;;;9.50;92.10;;;;;;4992288;28;20103;-35
2023/11/16 02:56:11;;;;;;;7.53;2.30;;;9.50;92.10;;;;;;4992482;28;20101;-35
2023/11/16 02:58:41;;;;;;;6.75;2.67;;;9.50;92.20;;;;;;4992460;28;20066;-35
2023/11/16 03:01:06;;;;;;;7.90;2.83;;;9.50;92.20;;;;;;4991582;28;20026;-35
2023/11/16 03:03:34;;;;;;;8.95;3.17;;;9.50;92.20;;;;;;4992306;28;20022;-34
2023/11/16 03:05:59;;;;;;;6.03;2.83;;;9.50;92.50;;;;;;4992714;28;20073;-35
2023/11/16 03:08:25;;;;;;;8.10;3.03;;;9.50;92.20;;;;;;4990820;28;20499;-34
2023/11/16 03:10:51;;;;;;;7.93;2.80;;;9.50;92.20;;;;;;4992437;28;20386;-35
2023/11/16 03:13:16;;;;;;;8.43;2.88;;;9.60;92.20;;;;;;4992125;28;20494;-34
2023/11/16 03:15:43;;;;;;;6.70;3.30;;;9.50;92.20;;;;;;4991223;28;20205;-35
2023/11/16 03:18:08;;;;;;;6.30;2.72;;;9.60;92.30;;;;;;4992087;28;20022;-34
2023/11/16 03:20:34;;;;;;;7.72;2.65;;;9.60;92.30;;;;;;4992185;28;20033;-35
2023/11/16 03:23:00;;;;;;;6.82;2.60;;;9.60;92.30;;;;;;4992109;28;20027;-35
2023/11/16 03:25:26;;;;;;;4.93;2.60;;;9.60;92.30;;;;;;4992169;28;20029;-34
2023/11/16 03:27:52;;;;;;;4.63;2.83;;;9.60;92.30;;;;;;4992347;28;20482;-35
2023/11/16 03:30:17;;;;;;;6.88;2.85;;;9.60;92.30;;;;;;4992121;28;20085;-35
2023/11/16 03:32:45;;;;;;;5.55;2.60;;;9.60;92.30;;;;;;4992419;28;20034;-32
2023/11/16 03:35:13;;;;;;;5.60;2.45;;;9.60;92.30;;;;;;4992062;28;20026;-35
2023/11/16 03:37:42;;;;;;;3.47;2.55;;;9.60;92.30;;;;;;4992135;28;20069;-35
2023/11/16 03:40:08;;;;;;;4.22;2.80;;;9.50;92.30;;;;;;4992126;28;20482;-35
2023/11/16 03:42:34;;;;;;;3.80;2.70;;;9.60;92.40;;;;;;4992095;28;20037;-34
2023/11/16 03:44:59;;;;;;;4.07;2.60;;;9.50;92.40;;;;;;4991832;28;20019;-35
2023/11/16 03:47:25;;;;;;;7.35;2.60;;;9.50;92.40;;;;;;4991913;28;20056;-34
2023/11/16 03:49:51;;;;;;;4.88;2.38;;;9.50;92.40;;;;;;4992036;28;20030;-35
2023/11/16 03:52:16;;;;;;;6.57;2.60;;;9.50;92.50;;;;;;4992130;28;20022;-35
2023/11/16 03:54:45;;;;;;;6.82;2.42;;;9.50;92.50;;;;;;4992058;28;20081;-35
2023/11/16 03:57:11;;;;;;;7.88;2.22;;;9.50;92.50;;;;;;4992011;28;20018;-35
2023/11/16 03:59:38;;;;;;;5.70;2.20;;;9.50;92.50;;;;;;4992081;28;20037;-34
2023/11/16 04:02:05;;;;;;;5.65;2.42;;;9.60;92.50;;;;;;4992085;28;20023;-34
2023/11/16 04:04:31;;;;;;;5.07;2.45;;;9.60;92.40;;;;;;4990532;28;20041;-36
2023/11/16 04:06:56;;;;;;;4.97;2.53;;;9.60;92.40;;;;;;4992290;28;20022;-34
2023/11/16 04:09:23;;;;;;;6.40;2.35;;;9.60;92.40;;;;;;4991874;28;20459;-35
2023/11/16 04:11:49;;;;;;;6.95;2.67;;;9.60;92.50;;;;;;4991924;28;20023;-35
2023/11/16 04:14:16;;;;;;;5.63;2.70;;;9.50;92.50;;;;;;4995237;28;20460;-34
2023/11/16 04:16:42;;;;;;;4.70;2.80;;;9.60;92.50;;;;;;4995341;28;20470;-35
2023/11/16 04:19:09;;;;;;;7.72;2.90;;;9.60;92.50;;;;;;4995426;28;20078;-34
2023/11/16 04:21:36;;;;;;;7.25;3.08;;;9.60;92.50;;;;;;4995397;28;20462;-34
2023/11/16 04:24:08;;;;;;;7.05;2.97;;;9.60;92.50;;;;;;4995123;28;20030;-35
2023/11/16 04:26:36;;;;;;;6.85;3.30;;;9.60;92.50;;;;;;4995193;28;20030;-36
2023/11/16 04:29:04;;;;;;;8.10;4.00;;;9.60;92.50;;;;;;4995040;28;20433;-35
2023/11/16 04:31:30;;;;;;;8.27;4.13;;;9.60;92.50;;;;;;4995301;28;20021;-35
2023/11/16 04:33:57;;;;;;;7.78;4.32;;;9.50;92.40;;;;;;4994944;28;20023;-34
2023/11/16 04:36:28;;;;;;;7.60;4.32;;;9.60;92.40;;;;;;4994944;28;20022;-35
2023/11/16 04:38:57;;;;;;;9.85;4.40;;;9.50;92.40;;;;;;4994818;28;20038;-34
2023/11/16 04:41:30;;;;;;;9.43;4.85;;;9.50;92.50;;;;;;4994929;28;20029;-33
2023/11/16 04:43:55;;;;;;;5.78;3.92;;;9.60;92.50;;;;;;4994674;28;20515;-35
2023/11/16 04:46:22;;;;;;;10.38;5.25;;;9.60;92.50;;;;;;4994808;28;20241;-36
2023/11/16 04:48:47;;;;;;;9.93;4.38;;;9.60;92.40;;;;;;4994605;28;20230;-34
2023/11/16 04:51:17;;;;;;;11.48;5.35;;;9.70;92.40;;;;;;4994760;28;20148;-34
2023/11/16 04:53:44;;;;;;;9.32;5.68;;;9.70;92.40;;;;;;4994628;28;20066;-34
2023/11/16 04:56:10;;;;;;;10.88;5.15;;;9.70;92.40;;;;;;4994519;28;20027;-34
2023/11/16 04:58:35;;;;;;;10.32;5.80;;;9.70;92.40;;;;;;4994611;28;20034;-35
2023/11/16 05:01:02;;;;;;;11.02;5.63;;;9.70;92.30;;;;;;4994695;28;20030;-35
2023/11/16 05:03:28;;;;;;;11.88;6.07;;;9.70;92.30;;;;;;4994443;28;20022;-35
2023/11/16 05:05:53;;;;;;;9.70;5.65;;;9.80;92.40;;;;;;4994486;28;20030;-35
2023/11/16 05:08:20;;;;;;;8.88;6.15;;;9.80;92.40;;;;;;4994254;28;20027;-33
2023/11/16 05:10:47;;;;;;;10.32;5.93;;;9.80;92.30;;;;;;4994592;28;20026;-35
2023/11/16 05:13:13;;;;;;;13.68;6.18;;;9.70;92.30;;;;;;4994147;28;20102;-35
2023/11/16 05:15:40;;;;;;;7.95;5.07;;;9.70;92.40;;;;;;4993128;28;20109;-34
2023/11/16 05:18:06;;;;;;;9.77;5.28;;;9.70;92.40;;;;;;4993455;28;20033;-31
2023/11/16 05:20:31;;;;;;;9.55;5.43;;;9.80;92.40;;;;;;4993750;28;20039;-34
2023/11/16 05:22:57;;;;;;;11.13;5.13;;;9.80;92.40;;;;;;4994106;28;20054;-34
2023/11/16 05:25:23;;;;;;;12.13;5.53;;;9.80;92.30;;;;;;4993164;28;20077;-35
2023/11/16 05:27:48;;;;;;;6.75;4.70;;;9.90;92.40;;;;;;4993945;28;20026;-34
2023/11/16 05:30:15;;;;;;;11.02;5.00;;;9.80;92.30;;;;;;4994017;28;20030;-34
2023/11/16 05:32:41;;;;;;;8.48;4.28;;;9.80;92.30;;;;;;4993852;28;20030;-35
2023/11/16 05:35:07;;;;;;;9.95;4.80;;;9.80;92.30;;;;;;4993751;28;20064;-33
2023/11/16 05:37:33;;;;;;;7.43;4.38;;;9.80;92.30;;;;;;4993805;28;20033;-34
2023/11/16 05:40:03;;;;;;;6.57;4.38;;;9.80;92.30;;;;;;4993718;28;20026;-33
2023/11/16 05:42:29;;;;;;;10.05;4.40;;;9.70;92.30;;;;;;4993678;28;20149;-33
2023/11/16 05:44:54;;;;;;;8.90;5.10;;;9.70;92.30;;;;;;4993440;28;20105;-34
2023/11/16 05:47:20;;;;;;;8.38;5.25;;;9.70;92.30;;;;;;4993713;28;20030;-34
2023/11/16 05:49:45;;;;;;;11.65;5.00;;;9.60;92.30;;;;;;4993406;28;20049;-33
2023/11/16 05:52:11;;;;;;;9.45;4.30;;;9.60;92.30;;;;;;4993553;28;20023;-34
2023/11/16 05:54:37;;;;;;;8.98;4.93;;;9.50;92.30;;;;;;4993456;28;20023;-33
2023/11/16 05:57:02;;;;;;;7.03;4.32;;;9.50;92.40;;;;;;4993470;28;20031;-34
2023/11/16 05:59:28;;;;;;;8.48;4.68;;;9.40;92.40;;;;;;4992045;28;20026;-34
2023/11/16 06:01:53;;;;;;;8.27;4.82;;;9.40;92.40;;;;;;4993424;28;20026;-41
2023/11/16 06:04:22;;;;;;;10.35;4.75;;;9.30;92.40;;;;;;4991763;28;20053;-32
2023/11/16 06:06:51;;;;;;;9.70;4.70;;;9.30;92.40;;;;;;4993386;28;20034;-34
2023/11/16 06:09:17;;;;;;;6.75;4.03;;;9.30;92.50;;;;;;4993018;28;20053;-34
2023/11/16 06:11:43;;;;;;;9.73;4.53;;;9.30;92.50;;;;;;4993487;28;20022;-34
2023/11/16 06:14:08;;;;;;;11.95;4.50;;;9.30;92.50;;;;;;4993002;28;20029;-34
2023/11/16 06:16:34;;;;;;;9.73;4.90;;;9.30;92.50;;;;;;4992945;28;20030;-33
2023/11/16 06:19:00;;;;;;;9.15;4.60;;;9.30;92.50;;;;;;4993011;28;20491;-34
2023/11/16 06:21:26;;;;;;;8.18;4.88;;;9.30;92.40;;;;;;4993297;28;20094;-34
2023/11/16 06:23:54;;;;;;;7.07;4.63;;;9.20;92.40;;;;;;4992968;28;20042;-34
2023/11/16 06:26:20;;;;;;;8.70;4.35;;;9.20;92.40;;;;;;4992828;28;20023;-33
2023/11/16 06:28:45;;;;;;;9.32;4.25;;;9.20;92.40;;;;;;4992542;28;20129;-34
2023/11/16 06:31:11;;;;;;;9.98;4.95;;;9.30;92.50;;;;;;4993117;28;20496;-34
2023/11/16 06:33:37;;;;;;;6.38;4.20;;;9.30;92.50;;;;;;4993006;28;20026;-34
2023/11/16 06:36:03;;;;;;;10.50;4.47;;;9.30;92.70;;;;;;4992645;28;20018;-35
2023/11/16 06:38:30;;;;;;;6.38;4.20;;;9.30;92.40;;;;;;4992690;28;20030;-34
2023/11/16 06:40:59;;;;;;;6.85;4.43;;;9.30;92.40;;;;;;4992904;28;20026;-33
2023/11/16 06:43:25;;;;;;;10.60;5.20;;;9.30;92.40;;;;;;4992545;28;20065;-34
2023/11/16 06:45:51;;;;;;;11.18;5.20;;;9.30;92.40;;;;;;4992745;28;20438;-34
2023/11/16 06:48:17;;;;;;;10.05;4.60;;;9.30;92.40;;;;;;4992376;28;20105;-34
2023/11/16 06:50:43;;;;;;;11.10;5.22;;;9.30;92.40;;;;;;4992522;28;20485;-34
2023/11/16 06:53:12;;;;;;;8.20;4.72;;;9.30;92.40;;;;;;4992817;28;20382;-34
2023/11/16 06:55:43;;;;;;;12.95;5.85;;;9.30;92.40;;;;;;4992267;28;20025;-34
2023/11/16 06:58:08;;;;;;;13.40;5.13;;;9.20;92.40;;;;;;4992467;28;20057;-33
2023/11/16 07:00:36;;;;;;;11.95;5.05;;;9.30;92.40;;;;;;4992654;28;20094;-33
2023/11/16 07:03:02;;;;;;;10.60;4.97;;;9.20;92.40;;;;;;4992550;28;20080;-34
2023/11/16 07:05:28;;;;;;;9.48;5.03;;;9.20;92.40;;;;;;4992466;28;20038;-34
2023/11/16 07:07:56;;;;;;;11.05;5.13;;;9.30;92.40;;;;;;4992235;28;20077;-35
2023/11/16 07:10:22;;;;;;;9.52;5.15;;;9.20;92.40;;;;;;4992585;28;20545;-35
2023/11/16 07:12:47;;;;;;;10.07;4.97;;;9.30;92.50;;;;;;4992155;28;20022;-34
2023/11/16 07:15:14;;;;;;;10.85;5.05;;;9.20;92.40;;;;;;4992347;28;20023;-34
2023/11/16 07:17:40;;;;;;;10.82;5.90;;;9.30;92.50;;;;;;4992333;28;20105;-34
2023/11/16 07:20:09;;;;;;;9.63;5.75;;;9.30;92.50;;;;;;4992576;28;20036;-34
2023/11/16 07:22:36;;;;;;;8.02;5.30;;;9.30;92.40;;;;;;4992472;28;20036;-33
2023/11/16 07:25:04;;;;;;;12.48;5.53;;;9.40;92.50;;;;;;4992249;28;20474;-34
2023/11/16 07:27:30;;;;;;;11.30;5.50;;;9.40;92.40;;;;;;4992562;28;20026;-35
2023/11/16 07:29:56;;;;;;;9.95;5.32;;;9.40;92.40;;;;;;4992067;28;20065;-35
2023/11/16 07:32:21;;;;;;;8.38;5.53;;;9.40;92.30;;;;;;4992253;28;20022;-35
2023/11/16 07:34:47;;;;;;;10.60;5.75;;;9.40;92.30;;;;;;4992083;28;20060;-35
2023/11/16 07:37:13;;;;;;;9.07;5.70;;;9.40;92.30;;;;;;4992203;28;20022;-34
2023/11/16 07:39:40;;;;;;;8.73;5.68;;;9.40;92.30;;;;;;4992064;28;20030;-39
2023/11/16 07:42:07;;;;;;;13.98;6.20;;;9.50;92.30;;;;;;4992209;28;20054;-38
2023/11/16 07:44:33;;;;;;;13.15;6.43;;;9.50;92.30;;;;;;4991369;28;20437;-34
2023/11/16 07:46:59;;;;;;;10.10;6.63;;;9.50;92.30;;;;;;4990679;28;20109;-33
2023/11/16 07:49:25;;;;;;;12.95;6.20;;;9.50;92.20;;;;;;4994395;28;20026;-34
2023/11/16 07:51:51;;;;;;;11.77;7.28;;;9.50;92.20;;;;;;4995349;28;20038;-37
2023/11/16 07:54:17;;;;;;;12.10;6.85;;;9.60;92.20;;;;;;4995595;28;20098;-35
2023/11/16 07:56:51;;;;;;;15.95;6.80;;;9.60;92.20;;;;;;4995657;28;20097;-34
2023/11/16 07:59:25;;;;;;;13.63;6.90;;;9.60;92.20;;;;;;4994287;28;20477;-34
2023/11/16 08:01:55;;;;;;;13.30;6.43;;;9.60;92.20;;;;;;4995653;28;20606;-34
2023/11/16 08:04:25;;;;;;;12.13;6.88;;;9.60;92.20;;;;;;4994340;28;20040;-34
2023/11/16 08:06:55;;;;;;;11.23;6.97;;;9.60;92.20;;;;;;4995764;28;20109;-34
2023/11/16 08:09:23;;;;;;;14.25;7.25;;;9.70;92.20;;;;;;4995746;28;20022;-33
2023/11/16 08:11:53;;;;;;;11.95;6.53;;;9.70;92.20;;;;;;4995462;28;20109;-34
2023/11/16 08:14:25;;;;;;;14.18;7.63;;;9.70;92.10;;;;;;4995521;28;20097;-33
2023/11/16 08:16:55;;;;;;;15.32;8.55;;;9.70;92.10;;;;;;4995316;28;20399;-33
2023/11/16 08:19:21;;;;;;;12.18;8.35;;;9.70;92.10;;;;;;4995070;28;20050;-34
2023/11/16 08:21:46;;;;;;;15.13;8.60;;;9.70;92.10;;;;;;4995138;28;20077;-34
2023/11/16 08:24:15;;;;;;;21.55;10.70;;;9.80;92.10;;;;;;4995078;28;20027;-34
2023/11/16 08:26:43;;;;;;;15.95;9.35;;;9.80;92.10;;;;;;4995446;28;20441;-34
2023/11/16 08:29:09;;;;;;;12.45;8.23;;;9.80;92.10;;;;;;4994972;28;20039;-34
2023/11/16 08:31:35;;;;;;;11.02;7.53;;;9.90;92.00;;;;;;4995698;28;20019;-34
2023/11/16 08:34:01;;;;;;;14.77;8.13;;;9.90;92.00;;;;;;4994896;28;20398;-34
2023/11/16 08:36:26;;;;;;;15.43;8.20;;;9.80;91.90;;;;;;4993500;28;20037;-34
2023/11/16 08:38:52;;;;;;;14.13;8.02;;;9.80;92.00;;;;;;4994972;28;20038;-35
2023/11/16 08:41:18;;;;;;;11.93;7.75;;;9.80;92.00;;;;;;4994873;28;20054;-35
2023/11/16 08:43:51;;;;;;;13.32;7.72;;;9.80;91.90;;;;;;4994699;28;20137;-35
2023/11/16 08:46:20;;;;;;;16.48;8.00;;;9.80;91.90;;;;;;4994770;28;20030;-33
2023/11/16 08:48:53;;;;;;;13.48;7.65;;;9.80;91.90;;;;;;4994518;28;20089;-37
2023/11/16 08:51:22;;;;;;;15.23;7.32;;;9.70;91.80;;;;;;4994669;28;20030;-34
2023/11/16 08:53:55;;;;;;;12.77;8.15;;;9.70;91.90;;;;;;4994516;28;20026;-35
2023/11/16 08:56:24;;;;;;;16.83;8.27;;;9.70;91.90;;;;;;4993230;28;20516;-35
2023/11/16 08:58:52;;;;;;;14.95;8.15;;;9.70;91.80;;;;;;4993531;28;20122;-33
2023/11/16 09:01:19;;;;;;;16.38;8.57;;;9.70;91.90;;;;;;4994919;28;20441;-34
2023/11/16 09:03:51;;;;;;;12.23;7.90;;;9.70;91.80;;;;;;4994459;28;20054;-33
2023/11/16 09:06:21;;;;;;;13.77;7.13;;;9.80;91.90;;;;;;4994886;28;20528;-34
2023/11/16 09:08:49;;;;;;;13.82;7.63;;;9.80;91.80;;;;;;4993121;28;20034;-34
2023/11/16 09:11:21;;;;;;;13.73;7.60;;;9.80;91.80;;;;;;4994678;28;20101;-35
2023/11/16 09:13:48;;;;;;;15.18;7.07;;;9.80;91.80;;;;;;4994239;28;20037;-35
2023/11/16 09:16:14;;;;;;;11.43;7.00;;;9.80;91.80;;;;;;4994130;28;20080;-35
2023/11/16 09:18:41;;;;;;;11.77;6.72;;;9.80;91.80;;;;;;4993993;28;20026;-35
2023/11/16 09:21:14;;;;;;;8.90;6.07;;;9.80;91.80;;;;;;4994121;28;20027;-35
2023/11/16 09:23:40;;;;;;;10.00;5.88;;;9.80;91.80;;;;;;4993958;28;20026;-35
2023/11/16 09:26:09;;;;;;;10.68;6.03;;;9.90;91.80;;;;;;4994333;28;20030;-35
2023/11/16 09:28:37;;;;;;;8.32;5.50;;;9.90;91.80;;;;;;4993926;28;20070;-35
2023/11/16 09:31:02;;;;;;;8.70;4.95;;;9.90;91.70;;;;;;4993969;28;20026;-35
2023/11/16 09:33:28;;;;;;;11.75;5.72;;;9.90;91.70;;;;;;4993904;28;20065;-34
2023/11/16 09:35:54;;;;;;;13.13;5.93;;;9.90;91.70;;;;;;4994057;28;20029;-36
2023/11/16 09:38:20;;;;;;;14.85;6.18;;;9.90;91.60;;;;;;4994146;28;20030;-35
2023/11/16 09:40:47;;;;;;;10.15;6.03;;;9.90;91.70;;;;;;4994139;28;20130;-34
2023/11/16 09:43:20;;;;;;;11.05;6.25;;;9.90;91.70;;;;;;4993490;28;20035;-35
2023/11/16 09:45:53;;;;;;;10.65;6.15;;;9.80;91.60;;;;;;4993803;28;20121;-35
2023/11/16 09:48:22;;;;;;;10.70;6.55;;;9.80;91.50;;;;;;4993768;28;20034;-34
2023/11/16 09:50:50;;;;;;;11.63;6.40;;;9.80;91.60;;;;;;4993972;28;20411;-35
2023/11/16 09:53:17;;;;;;;10.20;7.05;;;9.80;91.60;;;;;;4993414;28;20026;-33
2023/11/16 09:56:04;;;;;;;13.32;7.30;;;9.80;91.50;;;;;;4993706;28;20027;-34
2023/11/16 09:58:36;;;;;;;10.20;6.50;;;9.80;91.60;;;;;;4993149;28;20030;-31
2023/11/16 10:01:05;;;;;;;9.77;6.50;;;9.80;91.60;;;;;;4992058;28;20034;-35
2023/11/16 10:03:34;;;;;;;11.07;6.65;;;9.90;91.60;;;;;;4993265;28;20034;-33
2023/11/16 10:06:03;;;;;;;12.05;6.47;;;9.90;91.60;;;;;;4993530;28;20026;-35
2023/11/16 10:08:29;;;;;;;11.52;6.90;;;9.90;91.50;;;;;;4992924;28;20145;-34
2023/11/16 10:10:56;;;;;;;10.43;6.55;;;10.00;91.50;;;;;;4992667;28;20105;-35
2023/11/16 10:13:27;;;;;;;10.75;6.70;;;10.00;91.50;;;;;;4993256;28;20026;-34
2023/11/16 10:15:53;;;;;;;9.93;6.13;;;10.00;91.40;;;;;;4991538;28;20083;-35
2023/11/16 10:18:24;;;;;;;8.27;5.85;;;10.00;91.40;;;;;;4992805;28;20034;-34
2023/11/16 10:20:49;;;;;;;10.13;5.68;;;10.00;91.40;;;;;;4992869;28;20042;-35
2023/11/16 10:23:15;;;;;;;8.93;5.43;;;10.00;91.40;;;;;;4992793;28;20037;-35
2023/11/16 10:25:41;;;;;;;9.63;5.40;;;10.10;91.40;;;;;;4992664;28;20030;-33
2023/11/16 10:28:19;;;;;;;7.95;5.55;;;10.00;91.40;;;;;;4992702;28;20402;-35
2023/11/16 10:30:50;;;;;;;7.95;5.65;;;10.10;91.40;;;;;;4993138;28;20034;-35
2023/11/16 10:33:18;;;;;;;11.77;6.53;;;10.10;91.40;;;;;;4992852;28;20031;-35
2023/11/16 10:35:47;;;;;;;9.52;6.28;;;10.00;91.30;;;;;;4992945;28;20386;-34
2023/11/16 10:38:18;;;;;;;10.80;6.40;;;10.10;91.40;;;;;;4992875;28;20498;-33
2023/11/16 10:40:47;;;;;;;9.65;6.30;;;10.00;91.30;;;;;;4992820;28;20046;-34
2023/11/16 10:43:18;;;;;;;8.63;5.97;;;10.10;91.40;;;;;;4992832;28;20034;-35
2023/11/16 10:45:44;;;;;;;10.73;5.55;;;10.00;91.30;;;;;;4992502;28;20030;-35
2023/11/16 10:48:13;;;;;;;8.50;5.60;;;10.00;91.30;;;;;;4992363;28;20109;-35
2023/11/16 10:50:40;;;;;;;13.30;6.47;;;10.10;91.30;;;;;;4992736;28;20030;-34
2023/11/16 10:53:15;;;;;;;9.27;5.97;;;10.00;91.30;;;;;;4992178;28;20026;-35
2023/11/16 10:55:44;;;;;;;13.55;7.85;;;10.00;91.30;;;;;;4992578;28;20027;-35
2023/11/16 10:58:11;;;;;;;9.27;6.38;;;10.00;91.30;;;;;;4992356;28;20034;-35
2023/11/16 11:00:37;;;;;;;9.40;6.28;;;10.00;91.30;;;;;;4991700;28;20077;-35
2023/11/16 11:03:06;;;;;;;9.23;4.90;;;10.00;91.30;;;;;;4992381;28;20031;-35
2023/11/16 11:05:32;;;;;;;8.20;5.30;;;10.00;91.30;;;;;;4992614;28;20060;-34
2023/11/16 11:07:58;;;;;;;7.53;4.82;;;10.00;91.30;;;;;;4992136;28;20121;-35
2023/11/16 11:10:27;;;;;;;5.00;4.30;;;10.00;91.30;;;;;;4992433;28;20101;-36
2023/11/16 11:12:53;;;;;;;6.30;4.35;;;10.00;91.30;;;;;;4992247;28;20034;-34
2023/11/16 11:15:46;;;;;;;6.30;4.30;;;9.90;91.20;;;;;;4992407;28;20034;-34
2023/11/16 11:18:24;;;;;;;8.98;5.43;;;9.90;91.10;;;;;;4991514;28;20042;-34
2023/11/16 11:20:52;;;;;;;8.48;5.28;;;9.80;91.10;;;;;;4992371;28;20386;-33
2023/11/16 11:23:18;;;;;;;10.35;5.70;;;9.80;91.20;;;;;;4994817;28;20502;-33
2023/11/16 11:25:44;;;;;;;7.88;5.38;;;9.70;91.20;;;;;;4996255;28;20107;-35
2023/11/16 11:28:11;;;;;;;7.82;5.47;;;9.70;91.30;;;;;;4994710;28;20247;-34
2023/11/16 11:30:59;;;;;;;9.20;5.07;;;9.70;91.30;;;;;;4996397;28;20483;-34
2023/11/16 11:33:27;;;;;;;8.70;5.10;;;9.80;91.30;;;;;;4995891;28;20033;-34
2023/11/16 11:35:53;;;;;;;7.72;5.00;;;9.80;91.30;;;;;;4996526;28;20116;-34
2023/11/16 11:38:26;;;;;;;7.57;5.38;;;9.80;91.30;;;;;;4995893;28;20141;-35
2023/11/16 11:40:56;;;;;;;6.65;4.60;;;9.80;91.30;;;;;;4996048;28;20429;-33
2023/11/16 11:43:24;;;;;;;6.82;5.00;;;9.90;91.20;;;;;;4996026;28;20445;-35
2023/11/16 11:45:50;;;;;;;7.90;4.60;;;9.90;91.20;;;;;;4995950;28;20070;-35
2023/11/16 11:48:17;;;;;;;7.22;4.65;;;9.90;91.30;;;;;;4994331;28;20022;-34
2023/11/16 11:50:44;;;;;;;7.50;4.30;;;10.00;91.50;;;;;;4995783;28;20472;-35
2023/11/16 11:53:16;;;;;;;7.97;4.72;;;10.00;91.20;;;;;;4995841;28;20073;-34
2023/11/16 11:55:45;;;;;;;8.20;4.43;;;10.00;91.10;;;;;;4995930;28;20486;-34
2023/11/16 11:58:11;;;;;;;6.38;4.10;;;10.00;91.10;;;;;;4995646;28;20379;-34
2023/11/16 12:00:48;;;;;;;6.13;4.10;;;10.10;91.10;;;;;;4996035;28;20058;-34
2023/11/16 12:03:15;;;;;;;5.90;4.18;;;10.10;91.00;;;;;;4995836;28;20030;-35
2023/11/16 12:05:42;;;;;;;7.22;4.60;;;10.10;91.00;;;;;;4995877;28;20046;-34
2023/11/16 12:08:08;;;;;;;7.63;4.47;;;10.10;91.00;;;;;;4995641;28;20580;-35
2023/11/16 12:10:33;;;;;;;7.10;4.20;;;10.00;91.00;;;;;;4995576;28;20018;-35
2023/11/16 12:13:00;;;;;;;6.13;4.20;;;10.00;91.00;;;;;;4995365;28;20027;-34
2023/11/16 12:15:26;;;;;;;5.03;4.00;;;10.00;91.00;;;;;;4995360;28;20035;-35
2023/11/16 12:17:51;;;;;;;6.35;4.13;;;10.00;90.90;;;;;;4995214;28;20030;-34
2023/11/16 12:20:17;;;;;;;6.35;3.85;;;10.00;90.90;;;;;;4995306;28;20026;-35
2023/11/16 12:22:43;;;;;;;6.10;3.85;;;9.90;90.90;;;;;;4995610;28;20030;-34
2023/11/16 12:25:12;;;;;;;5.50;3.92;;;9.90;91.00;;;;;;4995488;28;20029;-35
2023/11/16 12:27:43;;;;;;;5.97;3.75;;;9.90;90.90;;;;;;4995394;28;20102;-33
2023/11/16 12:30:17;;;;;;;6.10;3.63;;;9.90;90.90;;;;;;4995341;28;20034;-34
2023/11/16 12:32:44;;;;;;;5.43;3.53;;;9.90;91.00;;;;;;4993677;28;20498;-35
2023/11/16 12:35:11;;;;;;;6.15;4.00;;;9.90;91.00;;;;;;4995323;28;20018;-36
2023/11/16 12:37:38;;;;;;;5.72;3.92;;;9.90;90.90;;;;;;4995202;28;20156;-34
2023/11/16 12:40:09;;;;;;;5.60;4.03;;;9.90;90.90;;;;;;4995553;28;20026;-34
2023/11/16 12:42:35;;;;;;;10.77;4.95;;;9.80;90.90;;;;;;4994831;28;20029;-42
2023/11/16 12:45:02;;;;;;;6.53;4.18;;;9.80;90.90;;;;;;4994873;28;20347;-34
2023/11/16 12:47:28;;;;;;;7.65;4.75;;;9.80;90.90;;;;;;4994748;28;20026;-34
2023/11/16 12:49:54;;;;;;;5.53;4.22;;;9.70;90.90;;;;;;4994686;28;20059;-36
2023/11/16 12:52:23;;;;;;;7.47;4.50;;;9.60;90.90;;;;;;4994664;28;20018;-33